Check out our new PWSWeather beta!
PWSweather.com
Personal Weather Stations
Station Observations
METEOC500
Santo Antonio, FunchalPT 2020

Santo AntonioFunchalPT 2020

Lat: 32.678227, Lon: -16.945054

Elevation: 1669.94751

Station Type: WH Series

High Low Average
Temperature 67.3°F19.6°C 61.3°F16.3°C 64.4°F18.0°C
Dew Point 64.6°F18.1°C 56.3°F13.5°C 60.1°F15.6°C
Winds 7.6 mph 12.2 kmh Calm Calm 2.0 mph WSW3.2 kmh WSW
Wind Gusts 15.0 mph24.1 kmh -- 7.0 mph11.3 kmh
Humidity 97% 78% 86%
Pressure 30.29 in1025.7 mb 30.22 in1023.4 mb -
Precipitation 0.00 in0.0 mm - -
Hour Temp Dew Point Humidity Winds Wind Gusts Pressure Precip Precip Rate Daily Precip Total
12:10 AM 65.3°F18.5°C 61.7°F16.5°C 88% Calm Calm 4.9 mph7.9 kmh 30.25 in1024.4 mb 0.00 in0.0 mm 0.00 in0.0 mm 0.00 in0.0 mm
12:25 AM 65.3°F18.5°C 62.1°F16.7°C 89% Calm Calm 2.5 mph4.0 kmh 30.25 in1024.4 mb 0.00 in0.0 mm 0.00 in0.0 mm 0.00 in0.0 mm
12:40 AM 65.3°F18.5°C 62.2°F16.8°C 90% Calm Calm 2.5 mph4.0 kmh 30.25 in1024.4 mb 0.00 in0.0 mm 0.00 in0.0 mm 0.00 in0.0 mm
12:55 AM 65.1°F18.4°C 62.1°F16.7°C 90% Calm Calm -- 30.24 in1024.0 mb 0.00 in0.0 mm 0.00 in0.0 mm 0.00 in0.0 mm
01:10 AM 65.3°F18.5°C 62.2°F16.8°C 90% Calm Calm 4.9 mph7.9 kmh 30.24 in1024.0 mb 0.00 in0.0 mm 0.00 in0.0 mm 0.00 in0.0 mm
01:25 AM 65.7°F18.7°C 63.5°F17.5°C 93% 1.6 mph SE2.6 kmh SE 4.9 mph7.9 kmh 30.24 in1024.0 mb 0.00 in0.0 mm 0.00 in0.0 mm 0.00 in0.0 mm
01:40 AM 66.0°F18.9°C 64.6°F18.1°C 95% 1.6 mph E2.6 kmh E 7.6 mph12.2 kmh 30.24 in1024.0 mb 0.00 in0.0 mm 0.00 in0.0 mm 0.00 in0.0 mm
01:55 AM 65.8°F18.8°C 64.4°F18.0°C 95% 0.2 mph ESE0.3 kmh ESE 4.9 mph7.9 kmh 30.24 in1024.0 mb 0.00 in0.0 mm 0.00 in0.0 mm 0.00 in0.0 mm
02:10 AM 65.7°F18.7°C 64.4°F18.0°C 96% 7.6 mph NNW12.2 kmh NNW 15.0 mph24.1 kmh 30.23 in1023.7 mb 0.00 in0.0 mm 0.00 in0.0 mm 0.00 in0.0 mm
02:25 AM 65.3°F18.5°C 64.0°F17.8°C 96% 6.0 mph N9.7 kmh N 12.5 mph20.1 kmh 30.23 in1023.7 mb 0.00 in0.0 mm 0.00 in0.0 mm 0.00 in0.0 mm
02:40 AM 65.1°F18.4°C 64.0°F17.8°C 96% 2.5 mph N4.0 kmh N 10.1 mph16.3 kmh 30.23 in1023.7 mb 0.00 in0.0 mm 0.00 in0.0 mm 0.00 in0.0 mm
02:55 AM 64.9°F18.3°C 63.9°F17.7°C 96% Calm Calm 7.6 mph12.2 kmh 30.23 in1023.7 mb 0.00 in0.0 mm 0.00 in0.0 mm 0.00 in0.0 mm
03:10 AM 64.8°F18.2°C 63.7°F17.6°C 96% 4.7 mph NW7.6 kmh NW 7.6 mph12.2 kmh 30.22 in1023.4 mb 0.00 in0.0 mm 0.00 in0.0 mm 0.00 in0.0 mm
03:25 AM 64.8°F18.2°C 63.7°F17.6°C 96% 3.4 mph SSE5.5 kmh SSE 10.1 mph16.3 kmh 30.22 in1023.4 mb 0.00 in0.0 mm 0.00 in0.0 mm 0.00 in0.0 mm
03:40 AM 64.8°F18.2°C 63.9°F17.7°C 97% 1.8 mph WNW2.9 kmh WNW 10.1 mph16.3 kmh 30.22 in1023.4 mb 0.00 in0.0 mm 0.00 in0.0 mm 0.00 in0.0 mm
03:55 AM 64.8°F18.2°C 63.9°F17.7°C 97% 2.9 mph SW4.7 kmh SW 4.9 mph7.9 kmh 30.22 in1023.4 mb 0.00 in0.0 mm 0.00 in0.0 mm 0.00 in0.0 mm
04:10 AM 64.8°F18.2°C 63.9°F17.7°C 97% Calm Calm 4.9 mph7.9 kmh 30.22 in1023.4 mb 0.00 in0.0 mm 0.00 in0.0 mm 0.00 in0.0 mm
04:25 AM 64.8°F18.2°C 63.9°F17.7°C 97% 1.8 mph S2.9 kmh S 4.9 mph7.9 kmh 30.22 in1023.4 mb 0.00 in0.0 mm 0.00 in0.0 mm 0.00 in0.0 mm
04:40 AM 64.6°F18.1°C 63.7°F17.6°C 97% 2.9 mph SSW4.7 kmh SSW 7.6 mph12.2 kmh 30.22 in1023.4 mb 0.00 in0.0 mm 0.00 in0.0 mm 0.00 in0.0 mm
04:55 AM 64.4°F18.0°C 63.5°F17.5°C 97% Calm Calm 7.6 mph12.2 kmh 30.22 in1023.4 mb 0.00 in0.0 mm 0.00 in0.0 mm 0.00 in0.0 mm
05:10 AM 64.2°F17.9°C 63.3°F17.4°C 97% Calm Calm 7.6 mph12.2 kmh 30.22 in1023.4 mb 0.00 in0.0 mm 0.00 in0.0 mm 0.00 in0.0 mm
05:25 AM 63.9°F17.7°C 63.0°F17.2°C 97% Calm Calm -- 30.22 in1023.4 mb 0.00 in0.0 mm 0.00 in0.0 mm 0.00 in0.0 mm
05:40 AM 62.6°F17.0°C 61.5°F16.4°C 96% 2.5 mph N4.0 kmh N 4.9 mph7.9 kmh 30.23 in1023.7 mb 0.00 in0.0 mm 0.00 in0.0 mm 0.00 in0.0 mm
05:55 AM 61.9°F16.6°C 59.9°F15.5°C 93% 0.7 mph NNW1.1 kmh NNW 7.6 mph12.2 kmh 30.23 in1023.7 mb 0.00 in0.0 mm 0.00 in0.0 mm 0.00 in0.0 mm
06:10 AM 62.1°F16.7°C 59.2°F15.1°C 90% 5.6 mph NNW9.0 kmh NNW 7.6 mph12.2 kmh 30.23 in1023.7 mb 0.00 in0.0 mm 0.00 in0.0 mm 0.00 in0.0 mm
06:25 AM 62.2°F16.8°C 59.0°F15.0°C 89% 3.1 mph NNW5.0 kmh NNW 7.6 mph12.2 kmh 30.23 in1023.7 mb 0.00 in0.0 mm 0.00 in0.0 mm 0.00 in0.0 mm
06:40 AM 62.1°F16.7°C 58.1°F14.5°C 87% 3.1 mph NNW5.0 kmh NNW 7.6 mph12.2 kmh 30.23 in1023.7 mb 0.00 in0.0 mm 0.00 in0.0 mm 0.00 in0.0 mm
06:55 AM 62.1°F16.7°C 57.7°F14.3°C 86% 4.5 mph N7.2 kmh N 7.6 mph12.2 kmh 30.23 in1023.7 mb 0.00 in0.0 mm 0.00 in0.0 mm 0.00 in0.0 mm
07:10 AM 62.2°F16.8°C 57.7°F14.3°C 85% 5.4 mph NNW8.7 kmh NNW 7.6 mph12.2 kmh 30.24 in1024.0 mb 0.00 in0.0 mm 0.00 in0.0 mm 0.00 in0.0 mm
07:25 AM 62.4°F16.9°C 57.6°F14.2°C 84% 6.0 mph NNW9.7 kmh NNW 10.1 mph16.3 kmh 30.24 in1024.0 mb 0.00 in0.0 mm 0.00 in0.0 mm 0.00 in0.0 mm
07:40 AM 62.4°F16.9°C 57.6°F14.2°C 84% 4.7 mph NNW7.6 kmh NNW 10.1 mph16.3 kmh 30.25 in1024.4 mb 0.00 in0.0 mm 0.00 in0.0 mm 0.00 in0.0 mm
07:55 AM 62.2°F16.8°C 57.7°F14.3°C 85% 7.6 mph NNW12.2 kmh NNW 10.1 mph16.3 kmh 30.26 in1024.7 mb 0.00 in0.0 mm 0.00 in0.0 mm 0.00 in0.0 mm
08:10 AM 62.4°F16.9°C 57.9°F14.4°C 85% 4.5 mph NNW7.2 kmh NNW 10.1 mph16.3 kmh 30.26 in1024.7 mb 0.00 in0.0 mm 0.00 in0.0 mm 0.00 in0.0 mm
08:25 AM 62.8°F17.1°C 57.9°F14.4°C 84% 2.9 mph N4.7 kmh N 7.6 mph12.2 kmh 30.27 in1025.1 mb 0.00 in0.0 mm 0.00 in0.0 mm 0.00 in0.0 mm
08:40 AM 63.1°F17.3°C 57.9°F14.4°C 83% 2.5 mph N4.0 kmh N 7.6 mph12.2 kmh 30.27 in1025.1 mb 0.00 in0.0 mm 0.00 in0.0 mm 0.00 in0.0 mm
08:55 AM 63.3°F17.4°C 57.0°F13.9°C 80% 3.4 mph N5.5 kmh N 7.6 mph12.2 kmh 30.27 in1025.1 mb 0.00 in0.0 mm 0.00 in0.0 mm 0.00 in0.0 mm
09:10 AM 63.5°F17.5°C 57.9°F14.4°C 82% 0.7 mph NW1.1 kmh NW 4.9 mph7.9 kmh 30.28 in1025.4 mb 0.00 in0.0 mm 0.00 in0.0 mm 0.00 in0.0 mm
09:25 AM 63.9°F17.7°C 59.0°F15.0°C 84% Calm Calm 2.5 mph4.0 kmh 30.28 in1025.4 mb 0.00 in0.0 mm 0.00 in0.0 mm 0.00 in0.0 mm
09:40 AM 63.9°F17.7°C 59.2°F15.1°C 85% Calm Calm 2.5 mph4.0 kmh 30.28 in1025.4 mb 0.00 in0.0 mm 0.00 in0.0 mm 0.00 in0.0 mm
09:55 AM 63.9°F17.7°C 59.5°F15.3°C 86% 0.2 mph SE0.3 kmh SE 2.5 mph4.0 kmh 30.28 in1025.4 mb 0.00 in0.0 mm 0.00 in0.0 mm 0.00 in0.0 mm
10:10 AM 64.2°F17.9°C 59.9°F15.5°C 86% 1.6 mph SSE2.6 kmh SSE 2.5 mph4.0 kmh 30.29 in1025.7 mb 0.00 in0.0 mm 0.00 in0.0 mm 0.00 in0.0 mm
10:25 AM 64.8°F18.2°C 60.4°F15.8°C 86% Calm Calm 2.5 mph4.0 kmh 30.29 in1025.7 mb 0.00 in0.0 mm 0.00 in0.0 mm 0.00 in0.0 mm
10:40 AM 65.5°F18.6°C 59.5°F15.3°C 81% 1.3 mph ESE2.1 kmh ESE 7.6 mph12.2 kmh 30.29 in1025.7 mb 0.00 in0.0 mm 0.00 in0.0 mm 0.00 in0.0 mm
10:55 AM 66.9°F19.4°C 61.2°F16.2°C 82% 1.3 mph SE2.1 kmh SE 4.9 mph7.9 kmh 30.29 in1025.7 mb 0.00 in0.0 mm 0.00 in0.0 mm 0.00 in0.0 mm
11:10 AM 67.3°F19.6°C 61.5°F16.4°C 82% 2.5 mph SSW4.0 kmh SSW 10.1 mph16.3 kmh 30.29 in1025.7 mb 0.00 in0.0 mm 0.00 in0.0 mm 0.00 in0.0 mm
11:25 AM 66.7°F19.3°C 61.3°F16.3°C 83% 5.6 mph S9.0 kmh S 10.1 mph16.3 kmh 30.29 in1025.7 mb 0.00 in0.0 mm 0.00 in0.0 mm 0.00 in0.0 mm
11:40 AM 66.4°F19.1°C 60.8°F16.0°C 82% 4.9 mph SSE7.9 kmh SSE 10.1 mph16.3 kmh 30.29 in1025.7 mb 0.00 in0.0 mm 0.00 in0.0 mm 0.00 in0.0 mm
11:55 AM 66.4°F19.1°C 60.8°F16.0°C 82% 4.0 mph SE6.4 kmh SE 10.1 mph16.3 kmh 30.29 in1025.7 mb 0.00 in0.0 mm 0.00 in0.0 mm 0.00 in0.0 mm
12:10 PM 66.4°F19.1°C 60.4°F15.8°C 81% 1.8 mph ESE2.9 kmh ESE 7.6 mph12.2 kmh 30.28 in1025.4 mb 0.00 in0.0 mm 0.00 in0.0 mm 0.00 in0.0 mm
12:25 PM 66.6°F19.2°C 60.3°F15.7°C 80% 4.0 mph S6.4 kmh S 10.1 mph16.3 kmh 30.28 in1025.4 mb 0.00 in0.0 mm 0.00 in0.0 mm 0.00 in0.0 mm
12:40 PM 66.7°F19.3°C 60.4°F15.8°C 80% 4.7 mph S7.6 kmh S 10.1 mph16.3 kmh 30.28 in1025.4 mb 0.00 in0.0 mm 0.00 in0.0 mm 0.00 in0.0 mm
12:55 PM 66.4°F19.1°C 60.4°F15.8°C 81% 0.7 mph S1.1 kmh S 7.6 mph12.2 kmh 30.27 in1025.1 mb 0.00 in0.0 mm 0.00 in0.0 mm 0.00 in0.0 mm
01:10 PM 66.0°F18.9°C 60.1°F15.6°C 81% Calm Calm 4.9 mph7.9 kmh 30.26 in1024.7 mb 0.00 in0.0 mm 0.00 in0.0 mm 0.00 in0.0 mm
01:25 PM 66.2°F19.0°C 59.5°F15.3°C 79% 4.9 mph S7.9 kmh S 7.6 mph12.2 kmh 30.26 in1024.7 mb 0.00 in0.0 mm 0.00 in0.0 mm 0.00 in0.0 mm
01:40 PM 66.6°F19.2°C 59.9°F15.5°C 79% 4.5 mph SE7.2 kmh SE 4.9 mph7.9 kmh 30.26 in1024.7 mb 0.00 in0.0 mm 0.00 in0.0 mm 0.00 in0.0 mm
01:55 PM 67.1°F19.5°C 60.4°F15.8°C 79% Calm Calm 12.5 mph20.1 kmh 30.26 in1024.7 mb 0.00 in0.0 mm 0.00 in0.0 mm 0.00 in0.0 mm
02:10 PM 67.3°F19.6°C 60.6°F15.9°C 79% Calm Calm 7.6 mph12.2 kmh 30.25 in1024.4 mb 0.00 in0.0 mm 0.00 in0.0 mm 0.00 in0.0 mm
02:25 PM 66.9°F19.4°C 59.9°F15.5°C 78% 4.9 mph SSE7.9 kmh SSE 7.6 mph12.2 kmh 30.25 in1024.4 mb 0.00 in0.0 mm 0.00 in0.0 mm 0.00 in0.0 mm
02:40 PM 66.6°F19.2°C 59.9°F15.5°C 79% 1.6 mph SSW2.6 kmh SSW 7.6 mph12.2 kmh 30.24 in1024.0 mb 0.00 in0.0 mm 0.00 in0.0 mm 0.00 in0.0 mm
02:55 PM 66.2°F19.0°C 59.5°F15.3°C 79% 4.9 mph ESE7.9 kmh ESE 7.6 mph12.2 kmh 30.24 in1024.0 mb 0.00 in0.0 mm 0.00 in0.0 mm 0.00 in0.0 mm
03:10 PM 66.4°F19.1°C 59.7°F15.4°C 79% 0.2 mph SE0.3 kmh SE 7.6 mph12.2 kmh 30.25 in1024.4 mb 0.00 in0.0 mm 0.00 in0.0 mm 0.00 in0.0 mm
03:25 PM 66.7°F19.3°C 59.7°F15.4°C 78% 5.4 mph S8.7 kmh S 7.6 mph12.2 kmh 30.24 in1024.0 mb 0.00 in0.0 mm 0.00 in0.0 mm 0.00 in0.0 mm
03:40 PM 67.3°F19.6°C 60.3°F15.7°C 78% 5.6 mph SE9.0 kmh SE 10.1 mph16.3 kmh 30.24 in1024.0 mb 0.00 in0.0 mm 0.00 in0.0 mm 0.00 in0.0 mm
03:55 PM 67.3°F19.6°C 61.0°F16.1°C 80% 2.2 mph S3.5 kmh S 10.1 mph16.3 kmh 30.24 in1024.0 mb 0.00 in0.0 mm 0.00 in0.0 mm 0.00 in0.0 mm
04:10 PM 67.1°F19.5°C 60.8°F16.0°C 80% 0.9 mph WSW1.4 kmh WSW 10.1 mph16.3 kmh 30.24 in1024.0 mb 0.00 in0.0 mm 0.00 in0.0 mm 0.00 in0.0 mm
04:25 PM 66.7°F19.3°C 60.8°F16.0°C 81% 3.4 mph SSE5.5 kmh SSE 10.1 mph16.3 kmh 30.25 in1024.4 mb 0.00 in0.0 mm 0.00 in0.0 mm 0.00 in0.0 mm
04:40 PM 65.8°F18.8°C 60.3°F15.7°C 82% 3.4 mph SSE5.5 kmh SSE 10.1 mph16.3 kmh 30.25 in1024.4 mb 0.00 in0.0 mm 0.00 in0.0 mm 0.00 in0.0 mm
04:55 PM 65.3°F18.5°C 59.7°F15.4°C 82% 4.0 mph S6.4 kmh S 7.6 mph12.2 kmh 30.26 in1024.7 mb 0.00 in0.0 mm 0.00 in0.0 mm 0.00 in0.0 mm
05:10 PM 65.1°F18.4°C 59.5°F15.3°C 82% Calm Calm 7.6 mph12.2 kmh 30.25 in1024.4 mb 0.00 in0.0 mm 0.00 in0.0 mm 0.00 in0.0 mm
05:25 PM 65.3°F18.5°C 60.1°F15.6°C 83% 1.8 mph S2.9 kmh S 4.9 mph7.9 kmh 30.25 in1024.4 mb 0.00 in0.0 mm 0.00 in0.0 mm 0.00 in0.0 mm
05:40 PM 65.1°F18.4°C 60.1°F15.6°C 84% Calm Calm 7.6 mph12.2 kmh 30.26 in1024.7 mb 0.00 in0.0 mm 0.00 in0.0 mm 0.00 in0.0 mm
05:55 PM 64.9°F18.3°C 59.9°F15.5°C 84% Calm Calm 7.6 mph12.2 kmh 30.25 in1024.4 mb 0.00 in0.0 mm 0.00 in0.0 mm 0.00 in0.0 mm
06:10 PM 64.6°F18.1°C 59.7°F15.4°C 84% Calm Calm 4.9 mph7.9 kmh 30.25 in1024.4 mb 0.00 in0.0 mm 0.00 in0.0 mm 0.00 in0.0 mm
06:25 PM 64.2°F17.9°C 59.4°F15.2°C 84% Calm Calm 4.9 mph7.9 kmh 30.25 in1024.4 mb 0.00 in0.0 mm 0.00 in0.0 mm 0.00 in0.0 mm
06:40 PM 64.0°F17.8°C 59.4°F15.2°C 85% 0.7 mph S1.1 kmh S 4.9 mph7.9 kmh 30.25 in1024.4 mb 0.00 in0.0 mm 0.00 in0.0 mm 0.00 in0.0 mm
06:55 PM 63.9°F17.7°C 59.2°F15.1°C 85% 0.9 mph SSW1.4 kmh SSW 2.5 mph4.0 kmh 30.26 in1024.7 mb 0.00 in0.0 mm 0.00 in0.0 mm 0.00 in0.0 mm
07:10 PM 63.7°F17.6°C 59.4°F15.2°C 86% Calm Calm 2.5 mph4.0 kmh 30.26 in1024.7 mb 0.00 in0.0 mm 0.00 in0.0 mm 0.00 in0.0 mm
07:25 PM 63.5°F17.5°C 59.2°F15.1°C 86% Calm Calm 2.5 mph4.0 kmh 30.27 in1025.1 mb 0.00 in0.0 mm 0.00 in0.0 mm 0.00 in0.0 mm
07:40 PM 63.1°F17.3°C 59.2°F15.1°C 87% Calm Calm 2.5 mph4.0 kmh 30.27 in1025.1 mb 0.00 in0.0 mm 0.00 in0.0 mm 0.00 in0.0 mm
07:55 PM 63.0°F17.2°C 59.4°F15.2°C 88% 0.9 mph NW1.4 kmh NW 2.5 mph4.0 kmh 30.27 in1025.1 mb 0.00 in0.0 mm 0.00 in0.0 mm 0.00 in0.0 mm
08:10 PM 62.4°F16.9°C 58.8°F14.9°C 88% 0.9 mph NNW1.4 kmh NNW 4.9 mph7.9 kmh 30.27 in1025.1 mb 0.00 in0.0 mm 0.00 in0.0 mm 0.00 in0.0 mm
08:25 PM 62.2°F16.8°C 58.6°F14.8°C 88% 0.9 mph NW1.4 kmh NW 4.9 mph7.9 kmh 30.27 in1025.1 mb 0.00 in0.0 mm 0.00 in0.0 mm 0.00 in0.0 mm
08:40 PM 62.1°F16.7°C 57.7°F14.3°C 86% 2.5 mph NNW4.0 kmh NNW 7.6 mph12.2 kmh 30.28 in1025.4 mb 0.00 in0.0 mm 0.00 in0.0 mm 0.00 in0.0 mm
08:55 PM 62.1°F16.7°C 57.2°F14.0°C 84% 2.2 mph N3.5 kmh N 7.6 mph12.2 kmh 30.27 in1025.1 mb 0.00 in0.0 mm 0.00 in0.0 mm 0.00 in0.0 mm
09:10 PM 61.9°F16.6°C 57.0°F13.9°C 84% 3.4 mph N5.5 kmh N 4.9 mph7.9 kmh 30.28 in1025.4 mb 0.00 in0.0 mm 0.00 in0.0 mm 0.00 in0.0 mm
09:25 PM 61.9°F16.6°C 56.7°F13.7°C 83% 2.9 mph NW4.7 kmh NW 4.9 mph7.9 kmh 30.28 in1025.4 mb 0.00 in0.0 mm 0.00 in0.0 mm 0.00 in0.0 mm
09:40 PM 61.9°F16.6°C 56.3°F13.5°C 82% 3.1 mph NW5.0 kmh NW 7.6 mph12.2 kmh 30.28 in1025.4 mb 0.00 in0.0 mm 0.00 in0.0 mm 0.00 in0.0 mm
09:55 PM 61.7°F16.5°C 56.5°F13.6°C 83% 6.0 mph NNW9.7 kmh NNW 7.6 mph12.2 kmh 30.28 in1025.4 mb 0.00 in0.0 mm 0.00 in0.0 mm 0.00 in0.0 mm
10:10 PM 61.7°F16.5°C 56.5°F13.6°C 83% 0.9 mph NNW1.4 kmh NNW 7.6 mph12.2 kmh 30.28 in1025.4 mb 0.00 in0.0 mm 0.00 in0.0 mm 0.00 in0.0 mm
10:25 PM 61.5°F16.4°C 56.7°F13.7°C 84% 3.8 mph N6.1 kmh N 4.9 mph7.9 kmh 30.28 in1025.4 mb 0.00 in0.0 mm 0.00 in0.0 mm 0.00 in0.0 mm
10:40 PM 61.5°F16.4°C 56.3°F13.5°C 83% 3.1 mph NNW5.0 kmh NNW 7.6 mph12.2 kmh 30.28 in1025.4 mb 0.00 in0.0 mm 0.00 in0.0 mm 0.00 in0.0 mm
10:55 PM 61.5°F16.4°C 56.7°F13.7°C 84% 1.8 mph NNW2.9 kmh NNW 4.9 mph7.9 kmh 30.28 in1025.4 mb 0.00 in0.0 mm 0.00 in0.0 mm 0.00 in0.0 mm
11:10 PM 61.5°F16.4°C 57.4°F14.1°C 86% 2.9 mph NNW4.7 kmh NNW 7.6 mph12.2 kmh 30.28 in1025.4 mb 0.00 in0.0 mm 0.00 in0.0 mm 0.00 in0.0 mm
11:25 PM 61.3°F16.3°C 57.4°F14.1°C 87% 1.8 mph NW2.9 kmh NW 4.9 mph7.9 kmh 30.28 in1025.4 mb 0.00 in0.0 mm 0.00 in0.0 mm 0.00 in0.0 mm
11:40 PM 61.3°F16.3°C 57.4°F14.1°C 87% 2.5 mph NW4.0 kmh NW 7.6 mph12.2 kmh 30.28 in1025.4 mb 0.00 in0.0 mm 0.00 in0.0 mm 0.00 in0.0 mm
11:55 PM 61.5°F16.4°C 57.4°F14.1°C 86% 2.2 mph NNW3.5 kmh NNW 4.9 mph7.9 kmh 30.28 in1025.4 mb 0.00 in0.0 mm 0.00 in0.0 mm 0.00 in0.0 mm